createdAt,value
2023-03-06T00:00:27.234Z,32.40
2023-03-06T00:02:53.846Z,25.42
2023-03-06T00:05:20.319Z,27.98
2023-03-06T00:07:46.989Z,25.20
2023-03-06T00:10:16.079Z,28.13
2023-03-06T00:12:42.569Z,26.40
2023-03-06T00:15:09.846Z,27.48
2023-03-06T00:17:36.618Z,25.58
2023-03-06T00:20:04.684Z,24.20
2023-03-06T00:22:31.196Z,24.90
2023-03-06T00:24:57.568Z,31.40
2023-03-06T00:27:26.108Z,27.13
2023-03-06T00:29:57.363Z,27.90
2023-03-06T00:32:24.781Z,26.80
2023-03-06T00:34:54.546Z,26.35
2023-03-06T00:37:23.071Z,28.35
2023-03-06T00:39:49.830Z,30.38
2023-03-06T00:42:17.759Z,27.48
2023-03-06T00:44:44.538Z,27.63
2023-03-06T00:47:11.856Z,28.83
2023-03-06T00:49:38.432Z,27.77
2023-03-06T00:52:05.598Z,27.98
2023-03-06T00:54:31.950Z,26.80
2023-03-06T00:56:58.298Z,25.00
2023-03-06T00:59:24.618Z,28.75
2023-03-06T01:01:50.992Z,24.30
2023-03-06T01:04:17.400Z,25.05
2023-03-06T01:06:43.787Z,32.17
2023-03-06T01:09:10.199Z,27.08
2023-03-06T01:11:36.523Z,26.73
2023-03-06T01:14:03.192Z,30.10
2023-03-06T01:16:29.684Z,27.80
2023-03-06T01:18:56.559Z,25.27
2023-03-06T01:21:23.320Z,26.52
2023-03-06T01:23:49.662Z,24.83
2023-03-06T01:26:16.162Z,27.58
2023-03-06T01:28:42.533Z,29.17
2023-03-06T01:31:10.129Z,27.30
2023-03-06T01:33:36.802Z,27.10
2023-03-06T01:36:06.025Z,26.65
2023-03-06T01:38:32.616Z,27.30
2023-03-06T01:40:59.360Z,29.20
2023-03-06T01:43:27.094Z,33.97
2023-03-06T01:46:31.242Z,25.83
2023-03-06T01:49:03.273Z,24.70
2023-03-06T01:51:38.253Z,23.52
2023-03-06T01:54:08.678Z,30.40
2023-03-06T01:56:35.539Z,24.02
2023-03-06T01:59:02.462Z,25.92
2023-03-06T02:01:30.562Z,29.02
2023-03-06T02:03:56.940Z,30.08
2023-03-06T02:06:23.338Z,32.97
2023-03-06T02:08:52.149Z,30.85
2023-03-06T02:11:21.716Z,26.23
2023-03-06T02:13:50.110Z,28.48
2023-03-06T02:16:17.631Z,27.17
2023-03-06T02:18:45.563Z,32.88
2023-03-06T02:21:20.233Z,30.60
2023-03-06T02:24:10.957Z,27.40
2023-03-06T02:26:38.075Z,29.10
2023-03-06T02:29:05.270Z,24.05
2023-03-06T02:31:33.355Z,25.98
2023-03-06T02:34:15.043Z,29.40
2023-03-06T02:36:47.411Z,24.98
2023-03-06T02:39:16.861Z,23.73
2023-03-06T02:41:43.257Z,25.17
2023-03-06T02:44:09.726Z,24.48
2023-03-06T02:46:38.571Z,22.38
2023-03-06T02:49:04.929Z,27.80
2023-03-06T02:51:31.234Z,29.17
2023-03-06T02:53:57.665Z,29.40
2023-03-06T02:56:24.050Z,22.63
2023-03-06T02:58:50.347Z,26.45
2023-03-06T03:01:16.741Z,24.75
2023-03-06T03:03:43.572Z,21.83
2023-03-06T03:06:10.237Z,19.00
2023-03-06T03:08:37.987Z,18.30
2023-03-06T03:11:05.164Z,21.17
2023-03-06T03:13:32.783Z,23.58
2023-03-06T03:16:01.575Z,20.17
2023-03-06T03:18:28.453Z,23.60
2023-03-06T03:20:55.500Z,23.08
2023-03-06T03:23:22.255Z,26.08
2023-03-06T03:25:48.573Z,19.90
2023-03-06T03:28:14.990Z,19.15
2023-03-06T03:30:42.230Z,24.27
2023-03-06T03:33:08.761Z,22.58
2023-03-06T03:35:35.539Z,19.98
2023-03-06T03:38:02.113Z,22.30
2023-03-06T03:40:28.802Z,21.42
2023-03-06T03:42:55.102Z,19.13
2023-03-06T03:45:22.117Z,19.83
2023-03-06T03:47:48.443Z,23.25
2023-03-06T03:50:14.753Z,19.83
2023-03-06T03:52:41.039Z,18.13
2023-03-06T03:55:08.060Z,16.63
2023-03-06T03:57:34.384Z,18.02
2023-03-06T04:00:00.804Z,17.85
2023-03-06T04:02:27.125Z,18.13
2023-03-06T04:04:53.620Z,17.38
2023-03-06T04:07:20.014Z,19.65
2023-03-06T04:09:46.360Z,19.25
2023-03-06T04:12:12.644Z,18.88
2023-03-06T04:14:38.955Z,15.80
2023-03-06T04:17:05.541Z,18.05
2023-03-06T04:19:31.854Z,23.83
2023-03-06T04:21:58.342Z,21.27
2023-03-06T04:24:25.157Z,20.30
2023-03-06T04:26:51.526Z,19.45
2023-03-06T04:29:17.862Z,19.15
2023-03-06T04:31:44.333Z,18.95
2023-03-06T04:34:10.803Z,20.58
2023-03-06T04:36:37.390Z,20.63
2023-03-06T04:39:04.957Z,17.08
2023-03-06T04:41:31.319Z,18.85
2023-03-06T04:43:57.815Z,18.40
2023-03-06T04:46:24.701Z,22.23
2023-03-06T04:48:51.196Z,27.20
2023-03-06T04:51:17.566Z,24.63
2023-03-06T04:53:44.081Z,21.10
2023-03-06T04:56:10.950Z,19.23
2023-03-06T04:58:37.382Z,17.45
2023-03-06T05:01:04.014Z,22.85
2023-03-06T05:03:31.033Z,20.85
2023-03-06T05:05:58.300Z,17.95
2023-03-06T05:08:24.749Z,21.55
2023-03-06T05:10:59.857Z,18.48
2023-03-06T05:13:27.197Z,17.77
2023-03-06T05:15:54.006Z,21.23
2023-03-06T05:18:21.294Z,18.67
2023-03-06T05:20:47.671Z,21.73
2023-03-06T05:23:14.084Z,22.77
2023-03-06T05:25:40.841Z,17.20
2023-03-06T05:28:07.839Z,17.00
2023-03-06T05:30:35.048Z,21.55
2023-03-06T05:33:01.867Z,22.52
2023-03-06T05:35:28.425Z,24.05
2023-03-06T05:37:54.927Z,19.23
2023-03-06T05:40:21.622Z,19.27
2023-03-06T05:42:47.974Z,15.57
2023-03-06T05:45:14.556Z,17.02
2023-03-06T05:47:41.044Z,16.02
2023-03-06T05:50:08.277Z,17.17
2023-03-06T05:52:35.083Z,18.30
2023-03-06T05:55:01.657Z,16.58
2023-03-06T05:57:28.022Z,18.10
2023-03-06T05:59:56.153Z,18.63
2023-03-06T06:02:22.629Z,16.35
2023-03-06T06:04:49.163Z,16.15
2023-03-06T06:07:16.816Z,15.60
2023-03-06T06:09:47.548Z,18.02
2023-03-06T06:12:15.439Z,18.67
2023-03-06T06:14:44.601Z,21.50
2023-03-06T06:17:12.455Z,18.17
2023-03-06T06:19:39.121Z,24.42
2023-03-06T06:22:05.733Z,39.30
2023-03-06T06:24:32.264Z,30.35
2023-03-06T06:27:04.232Z,23.58
2023-03-06T06:29:33.243Z,204.80
2023-03-06T06:32:00.159Z,21.58
2023-03-06T06:34:27.335Z,18.83
2023-03-06T06:36:54.434Z,17.13
2023-03-06T06:39:22.724Z,29.10
2023-03-06T06:42:03.007Z,28.33
2023-03-06T06:44:37.421Z,30.23
2023-03-06T06:47:23.671Z,21.95
2023-03-06T06:49:55.515Z,16.95
2023-03-06T06:52:24.240Z,18.27
2023-03-06T06:54:51.650Z,16.98
2023-03-06T06:57:18.401Z,23.02
2023-03-06T06:59:44.943Z,28.80
2023-03-06T07:02:12.926Z,20.48
2023-03-06T07:04:49.267Z,21.17
2023-03-06T07:07:26.681Z,21.77
2023-03-06T07:09:55.446Z,22.65
2023-03-06T07:12:21.880Z,23.15
2023-03-06T07:14:50.474Z,21.75
2023-03-06T07:17:19.724Z,25.05
2023-03-06T07:19:46.348Z,23.27
2023-03-06T07:22:13.428Z,23.58
2023-03-06T07:24:40.060Z,20.45
2023-03-06T07:27:06.665Z,23.60
2023-03-06T07:29:34.482Z,25.27
2023-03-06T07:32:01.053Z,23.27
2023-03-06T07:34:28.001Z,22.92
2023-03-06T07:36:54.567Z,27.45
2023-03-06T07:39:21.134Z,23.45
2023-03-06T07:41:47.615Z,27.67
2023-03-06T07:44:14.180Z,28.35
2023-03-06T07:46:40.659Z,23.70
2023-03-06T07:49:06.981Z,25.23
2023-03-06T07:51:33.559Z,20.13
2023-03-06T07:54:03.205Z,19.45
2023-03-06T07:56:29.775Z,19.67
2023-03-06T07:58:57.153Z,23.33
2023-03-06T08:01:24.246Z,24.33
2023-03-06T08:03:51.574Z,26.27
2023-03-06T08:06:24.395Z,20.90
2023-03-06T08:08:52.345Z,21.60
2023-03-06T08:11:21.413Z,24.10
2023-03-06T08:13:48.796Z,23.10
2023-03-06T08:16:17.241Z,23.88
2023-03-06T08:18:45.820Z,47.58
2023-03-06T08:21:18.257Z,242.38
2023-03-06T08:23:45.288Z,194.85
2023-03-06T08:26:14.799Z,184.80
2023-03-06T08:28:41.386Z,113.70
2023-03-06T08:31:11.454Z,27.02
2023-03-06T08:33:39.103Z,24.35
2023-03-06T08:36:05.717Z,49.45
2023-03-06T08:38:34.599Z,26.10
2023-03-06T08:41:01.158Z,28.88
2023-03-06T08:43:27.626Z,25.08
2023-03-06T08:45:55.758Z,27.73
2023-03-06T08:48:22.259Z,29.77
2023-03-06T08:50:49.115Z,45.42
2023-03-06T08:53:17.378Z,26.20
2023-03-06T08:55:44.007Z,26.33
2023-03-06T08:58:10.471Z,28.02
2023-03-06T09:00:39.560Z,24.75
2023-03-06T09:03:09.328Z,21.83
2023-03-06T09:05:35.924Z,24.35
2023-03-06T09:08:02.689Z,20.95
2023-03-06T09:10:29.370Z,22.48
2023-03-06T09:12:56.271Z,26.27
2023-03-06T09:15:23.800Z,24.30
2023-03-06T09:17:51.303Z,22.75
2023-03-06T09:20:18.983Z,24.35
2023-03-06T09:22:48.571Z,25.02
2023-03-06T09:25:20.258Z,24.63
2023-03-06T09:27:55.424Z,19.45
2023-03-06T09:30:28.669Z,38.10
2023-03-06T09:32:55.129Z,21.65
2023-03-06T09:35:21.500Z,22.27
2023-03-06T09:37:47.933Z,18.50
2023-03-06T09:40:30.746Z,21.83
2023-03-06T09:42:57.130Z,24.25
2023-03-06T09:45:23.562Z,25.35
2023-03-06T09:48:04.739Z,19.35
2023-03-06T09:50:55.001Z,16.63
2023-03-06T09:53:47.198Z,19.95
2023-03-06T09:56:17.865Z,18.77
2023-03-06T09:58:50.510Z,16.33
2023-03-06T10:01:27.561Z,17.70
2023-03-06T10:04:30.804Z,16.52
2023-03-06T10:07:02.222Z,18.98
2023-03-06T10:09:40.100Z,20.70
2023-03-06T10:12:22.973Z,19.45
2023-03-06T10:15:01.896Z,18.08
2023-03-06T10:17:35.272Z,17.30
2023-03-06T10:20:10.743Z,17.75
2023-03-06T10:22:46.144Z,19.92
2023-03-06T10:25:30.629Z,18.95
2023-03-06T10:28:05.549Z,25.38
2023-03-06T10:30:43.730Z,18.40
2023-03-06T10:33:28.478Z,22.42
2023-03-06T10:35:56.335Z,17.27
2023-03-06T10:38:27.567Z,17.42
2023-03-06T10:41:14.284Z,25.02
2023-03-06T10:43:43.778Z,22.33
2023-03-06T10:46:12.817Z,21.60
2023-03-06T10:48:42.310Z,17.73
2023-03-06T10:51:24.022Z,18.77
2023-03-06T10:54:13.624Z,19.50
2023-03-06T10:56:42.386Z,19.00
2023-03-06T10:59:19.204Z,17.33
2023-03-06T11:02:23.837Z,25.95
2023-03-06T11:04:52.845Z,23.35
2023-03-06T11:07:21.112Z,19.83
2023-03-06T11:09:57.088Z,17.38
2023-03-06T11:12:37.286Z,19.77
2023-03-06T11:15:07.692Z,18.50
2023-03-06T11:17:52.405Z,15.35
2023-03-06T11:20:38.409Z,20.88
2023-03-06T11:23:37.209Z,21.38
2023-03-06T11:26:15.739Z,19.00
2023-03-06T11:29:12.876Z,18.05
2023-03-06T11:32:20.217Z,20.55
2023-03-06T11:34:54.649Z,17.60
2023-03-06T11:37:46.392Z,15.18
2023-03-06T11:40:19.097Z,14.40
2023-03-06T11:43:14.409Z,16.25
2023-03-06T11:46:17.491Z,16.83
2023-03-06T11:48:52.068Z,18.10
2023-03-06T11:51:22.693Z,18.23
2023-03-06T11:53:49.278Z,18.52
2023-03-06T11:56:40.062Z,19.42
2023-03-06T11:59:21.068Z,16.58
2023-03-06T12:02:05.853Z,17.05
2023-03-06T12:04:55.243Z,16.75
2023-03-06T12:07:54.307Z,17.70
2023-03-06T12:10:31.748Z,17.73
2023-03-06T12:13:13.611Z,18.58
2023-03-06T12:15:56.643Z,17.50
2023-03-06T12:18:50.583Z,13.80
2023-03-06T12:21:28.813Z,13.90
2023-03-06T12:24:27.008Z,16.10
2023-03-06T12:27:17.520Z,12.93
2023-03-06T12:30:02.120Z,15.38
2023-03-06T12:32:37.176Z,13.00
2023-03-06T12:35:06.800Z,14.32
2023-03-06T12:37:49.840Z,13.77
2023-03-06T12:40:26.107Z,14.90
2023-03-06T12:43:10.273Z,15.05
2023-03-06T12:45:38.052Z,16.23
2023-03-06T12:48:15.028Z,15.80
2023-03-06T12:50:45.129Z,15.00
2023-03-06T12:53:26.299Z,17.15
2023-03-06T12:55:53.938Z,16.95
2023-03-06T12:58:44.830Z,16.65
2023-03-06T13:01:41.313Z,13.90
2023-03-06T13:04:52.628Z,13.90
2023-03-06T13:07:33.881Z,17.92
2023-03-06T13:10:08.020Z,13.85
2023-03-06T13:12:58.177Z,13.48
2023-03-06T13:15:27.469Z,15.60
2023-03-06T13:20:29.367Z,12.73
2023-03-06T13:22:56.265Z,14.23
2023-03-06T13:25:22.637Z,11.63
2023-03-06T13:27:51.953Z,13.98
2023-03-06T13:30:43.560Z,10.95
2023-03-06T13:35:58.182Z,10.57
2023-03-06T13:38:33.075Z,9.38
2023-03-06T13:41:42.646Z,7.55
2023-03-06T13:44:24.172Z,7.85
2023-03-06T13:47:55.734Z,7.30
2023-03-06T13:50:28.511Z,7.97
2023-03-06T13:53:26.523Z,6.60
2023-03-06T13:56:12.870Z,7.53
2023-03-06T13:59:03.749Z,5.72
2023-03-06T14:01:51.785Z,6.22
2023-03-06T14:04:39.842Z,7.13
2023-03-06T14:07:41.433Z,7.85
2023-03-06T14:10:22.445Z,7.75
2023-03-06T14:12:48.950Z,6.55
2023-03-06T14:15:22.344Z,6.30
2023-03-06T14:18:11.895Z,9.57
2023-03-06T14:20:44.620Z,12.65
2023-03-06T14:23:30.413Z,10.65
2023-03-06T14:26:02.742Z,10.82
2023-03-06T14:28:31.685Z,11.40
2023-03-06T14:31:08.014Z,11.52
2023-03-06T14:33:40.880Z,21.20
2023-03-06T14:36:12.724Z,9.98
2023-03-06T14:38:45.377Z,13.60
2023-03-06T14:41:15.614Z,12.20
2023-03-06T14:43:42.251Z,12.45
2023-03-06T14:46:19.938Z,15.48
2023-03-06T14:48:48.225Z,12.82
2023-03-06T14:51:19.225Z,12.10
2023-03-06T14:53:49.035Z,14.88
2023-03-06T14:56:24.989Z,16.02
2023-03-06T14:58:55.021Z,14.20
2023-03-06T15:01:27.810Z,12.98
2023-03-06T15:03:59.404Z,11.63
2023-03-06T15:06:33.367Z,11.30
2023-03-06T15:09:08.185Z,12.50
2023-03-06T15:12:22.648Z,14.43
2023-03-06T15:14:59.767Z,16.98
2023-03-06T15:17:44.991Z,14.02
2023-03-06T15:20:37.901Z,13.35
2023-03-06T15:23:18.452Z,16.70
2023-03-06T15:26:04.498Z,12.52
2023-03-06T15:28:39.459Z,12.75
2023-03-06T15:31:40.120Z,14.05
2023-03-06T15:34:06.607Z,15.18
2023-03-06T15:36:36.002Z,16.92
2023-03-06T15:39:30.133Z,16.25
2023-03-06T15:41:58.955Z,16.27
2023-03-06T15:44:26.268Z,14.98
2023-03-06T15:47:06.635Z,12.35
2023-03-06T15:49:37.925Z,18.15
2023-03-06T15:52:08.543Z,14.85
2023-03-06T15:54:36.116Z,16.42
2023-03-06T15:57:12.195Z,15.80
2023-03-06T16:02:16.628Z,16.67
2023-03-06T16:04:44.094Z,15.68
2023-03-06T16:07:11.447Z,14.55
2023-03-06T16:09:38.071Z,16.08
2023-03-06T16:12:06.016Z,18.92
2023-03-06T16:14:32.524Z,17.50
2023-03-06T16:16:59.515Z,18.02
2023-03-06T16:19:27.565Z,17.42
2023-03-06T16:21:55.905Z,19.52
2023-03-06T16:24:22.469Z,16.05
2023-03-06T16:26:51.108Z,18.38
2023-03-06T16:29:20.161Z,16.95
2023-03-06T16:31:50.054Z,20.70
2023-03-06T16:34:19.696Z,17.88
2023-03-06T16:36:48.278Z,17.08
2023-03-06T16:39:16.677Z,16.38
2023-03-06T16:41:46.071Z,16.92
2023-03-06T16:44:16.765Z,16.35
2023-03-06T16:46:45.851Z,18.02
2023-03-06T16:49:24.193Z,17.83
2023-03-06T16:51:51.658Z,20.45
2023-03-06T16:54:20.301Z,18.20
2023-03-06T16:56:46.694Z,17.20
2023-03-06T16:59:13.376Z,16.05
2023-03-06T17:01:44.257Z,16.83
2023-03-06T17:04:11.161Z,18.30
2023-03-06T17:06:38.417Z,17.77
2023-03-06T17:09:04.965Z,18.15
2023-03-06T17:11:31.621Z,14.95
2023-03-06T17:14:03.961Z,15.38
2023-03-06T17:16:30.502Z,18.52
2023-03-06T17:18:58.280Z,16.05
2023-03-06T17:21:26.936Z,17.75
2023-03-06T17:23:53.391Z,16.42
2023-03-06T17:26:23.002Z,16.13
2023-03-06T17:28:49.673Z,16.38
2023-03-06T17:31:18.489Z,17.67
2023-03-06T17:33:45.525Z,16.02
2023-03-06T17:36:14.300Z,14.93
2023-03-06T17:38:41.313Z,16.17
2023-03-06T17:41:09.419Z,18.58
2023-03-06T17:43:37.023Z,16.90
2023-03-06T17:46:05.493Z,17.05
2023-03-06T17:48:32.161Z,17.45
2023-03-06T17:50:59.054Z,16.65
2023-03-06T17:53:25.759Z,20.02
2023-03-06T17:55:52.269Z,20.75
2023-03-06T17:58:18.971Z,18.92
2023-03-06T18:00:45.830Z,18.50
2023-03-06T18:03:12.511Z,16.35
2023-03-06T18:05:39.036Z,16.88
2023-03-06T18:08:08.111Z,17.05
2023-03-06T18:10:34.695Z,18.83
2023-03-06T18:13:01.199Z,19.55
2023-03-06T18:15:27.851Z,19.20
2023-03-06T18:17:56.366Z,20.15
2023-03-06T18:20:23.002Z,19.23
2023-03-06T18:22:49.364Z,17.77
2023-03-06T18:25:18.496Z,19.02
2023-03-06T18:27:47.271Z,21.40
2023-03-06T18:30:14.395Z,21.10
2023-03-06T18:32:40.796Z,21.15
2023-03-06T18:35:09.830Z,24.67
2023-03-06T18:37:37.336Z,20.23
2023-03-06T18:40:03.955Z,18.95
2023-03-06T18:42:30.320Z,18.52
2023-03-06T18:44:57.468Z,20.10
2023-03-06T18:47:23.906Z,18.38
2023-03-06T18:49:50.286Z,19.45
2023-03-06T18:52:17.402Z,19.52
2023-03-06T18:54:44.695Z,16.77
2023-03-06T18:57:11.291Z,18.75
2023-03-06T18:59:38.000Z,16.83
2023-03-06T19:02:04.462Z,18.88
2023-03-06T19:04:30.854Z,22.30
2023-03-06T19:06:57.320Z,17.70
2023-03-06T19:09:23.780Z,20.55
2023-03-06T19:11:50.212Z,18.52
2023-03-06T19:14:16.661Z,17.23
2023-03-06T19:16:43.240Z,19.30
2023-03-06T19:19:09.738Z,18.45
2023-03-06T19:21:38.911Z,22.17
2023-03-06T19:24:07.360Z,16.65
2023-03-06T19:26:33.723Z,20.60
2023-03-06T19:29:02.549Z,20.85
2023-03-06T19:31:29.535Z,21.08
2023-03-06T19:33:59.276Z,18.95
2023-03-06T19:36:33.294Z,19.08
2023-03-06T19:39:07.903Z,21.17
2023-03-06T19:41:35.462Z,18.02
2023-03-06T19:44:03.198Z,18.70
2023-03-06T19:46:32.491Z,20.30
2023-03-06T19:49:01.925Z,19.00
2023-03-06T19:51:29.058Z,17.88
2023-03-06T19:53:56.886Z,19.25
2023-03-06T19:56:26.876Z,19.55
2023-03-06T19:58:53.648Z,20.98
2023-03-06T20:01:21.735Z,19.90
2023-03-06T20:03:53.103Z,19.77
2023-03-06T20:06:20.189Z,22.58
2023-03-06T20:08:47.342Z,23.30
2023-03-06T20:11:23.030Z,20.33
2023-03-06T20:13:50.120Z,20.83
2023-03-06T20:16:17.599Z,21.10
2023-03-06T20:18:46.628Z,23.00
2023-03-06T20:21:13.955Z,21.60
2023-03-06T20:23:43.248Z,20.52
2023-03-06T20:26:12.362Z,21.45
2023-03-06T20:28:40.362Z,19.73
2023-03-06T20:31:20.625Z,20.92
2023-03-06T20:33:49.902Z,18.33
2023-03-06T20:36:24.605Z,19.55
2023-03-06T20:38:53.149Z,18.58
2023-03-06T20:41:22.730Z,19.25
2023-03-06T20:46:19.032Z,20.15
2023-03-06T20:48:53.372Z,18.98
2023-03-06T20:51:25.658Z,18.90
2023-03-06T20:53:55.600Z,19.85
2023-03-06T20:56:27.756Z,19.67
2023-03-06T20:58:54.146Z,20.38
2023-03-06T21:01:22.990Z,17.77
2023-03-06T21:03:49.638Z,19.80
2023-03-06T21:06:16.666Z,18.63
2023-03-06T21:08:43.521Z,19.83
2023-03-06T21:11:10.025Z,19.05
2023-03-06T21:13:36.458Z,18.15
2023-03-06T21:16:07.724Z,19.52
2023-03-06T21:18:34.207Z,20.30
2023-03-06T21:21:05.360Z,17.75
2023-03-06T21:23:34.111Z,20.15
2023-03-06T21:26:00.815Z,18.70
2023-03-06T21:28:27.542Z,23.00
2023-03-06T21:30:54.653Z,19.85
2023-03-06T21:33:21.060Z,22.42
2023-03-06T21:35:47.961Z,18.60
2023-03-06T21:38:14.525Z,16.77
2023-03-06T21:40:41.322Z,20.70
2023-03-06T21:43:08.746Z,23.02
2023-03-06T21:45:35.441Z,20.90
2023-03-06T21:48:02.008Z,18.73
2023-03-06T21:50:28.569Z,22.08
2023-03-06T21:52:56.274Z,22.77
2023-03-06T21:55:23.049Z,21.80
2023-03-06T21:57:50.836Z,17.30
2023-03-06T22:00:18.255Z,21.63
2023-03-06T22:02:45.524Z,23.52
2023-03-06T22:05:12.418Z,23.05
2023-03-06T22:07:39.537Z,22.50
2023-03-06T22:10:09.183Z,24.42
2023-03-06T22:15:06.606Z,25.98
2023-03-06T22:17:33.128Z,27.15
2023-03-06T22:19:59.709Z,26.83
2023-03-06T22:22:26.149Z,22.50
2023-03-06T22:24:52.544Z,23.83
2023-03-06T22:27:18.909Z,22.25
2023-03-06T22:29:45.653Z,24.55
2023-03-06T22:32:12.223Z,28.25
2023-03-06T22:34:38.866Z,23.80
2023-03-06T22:37:05.192Z,24.25
2023-03-06T22:39:31.745Z,24.83
2023-03-06T22:41:58.139Z,22.65
2023-03-06T22:44:24.582Z,23.48
2023-03-06T22:46:53.472Z,25.23
2023-03-06T22:49:19.996Z,24.65
2023-03-06T22:51:46.706Z,25.08
2023-03-06T22:54:13.112Z,24.88
2023-03-06T22:56:39.544Z,24.15
2023-03-06T22:59:05.922Z,25.55
2023-03-06T23:01:33.837Z,22.75
2023-03-06T23:04:02.921Z,22.52
2023-03-06T23:06:31.681Z,23.83
2023-03-06T23:09:01.781Z,26.00
2023-03-06T23:11:29.972Z,21.92
2023-03-06T23:13:56.986Z,25.05
2023-03-06T23:16:23.980Z,23.13
2023-03-06T23:18:52.794Z,24.33
2023-03-06T23:21:21.219Z,22.00
2023-03-06T23:23:49.475Z,24.02
2023-03-06T23:26:17.630Z,25.60
2023-03-06T23:28:44.533Z,25.35
2023-03-06T23:31:13.931Z,24.17
2023-03-06T23:33:40.581Z,26.70
2023-03-06T23:36:09.900Z,24.80
2023-03-06T23:38:37.492Z,25.08
2023-03-06T23:41:15.932Z,26.52
2023-03-06T23:43:42.422Z,23.17
2023-03-06T23:46:09.014Z,25.42
2023-03-06T23:48:38.078Z,24.23
2023-03-06T23:51:09.320Z,22.13
2023-03-06T23:53:35.893Z,23.17
2023-03-06T23:56:06.094Z,25.15
2023-03-06T23:58:33.143Z,26.48
